createdAt,value
2019-04-21T00:00:00.338Z,53.41
2019-04-21T00:02:35.971Z,54.41
2019-04-21T00:05:25.931Z,54.97
2019-04-21T00:07:52.758Z,54.64
2019-04-21T00:10:30.155Z,55.30
2019-04-21T00:12:52.257Z,55.76
2019-04-21T00:15:19.392Z,55.77
2019-04-21T00:17:43.623Z,55.71
2019-04-21T00:20:26.108Z,56.06
2019-04-21T00:22:58.797Z,56.19
2019-04-21T00:25:32.184Z,54.97
2019-04-21T00:28:09.733Z,55.47
2019-04-21T00:30:42.826Z,55.78
2019-04-21T00:32:59.720Z,55.53
2019-04-21T00:35:25.857Z,55.86
2019-04-21T00:38:13.634Z,56.61
2019-04-21T00:40:47.918Z,56.64
2019-04-21T00:43:07.815Z,56.19
2019-04-21T00:45:42.233Z,55.77
2019-04-21T00:48:23.615Z,56.21
2019-04-21T00:51:14.529Z,55.95
2019-04-21T00:53:35.706Z,55.94
2019-04-21T00:56:03.316Z,55.74
2019-04-21T00:58:33.334Z,55.38
2019-04-21T01:01:02.232Z,55.54
2019-04-21T01:03:32.710Z,55.57
2019-04-21T01:06:05.327Z,55.66
2019-04-21T01:08:31.298Z,56.27
2019-04-21T01:11:09.470Z,55.57
2019-04-21T01:13:41.266Z,55.76
2019-04-21T01:16:07.149Z,56.13
2019-04-21T01:18:38.054Z,55.66
2019-04-21T01:20:49.213Z,55.67
2019-04-21T01:23:19.219Z,56.03
2019-04-21T01:26:00.682Z,55.82
2019-04-21T01:28:35.933Z,56.00
2019-04-21T01:31:09.387Z,55.85
2019-04-21T01:33:44.363Z,56.22
2019-04-21T01:36:16.863Z,55.35
2019-04-21T01:38:48.159Z,54.95
2019-04-21T01:41:20.991Z,55.70
2019-04-21T01:43:45.746Z,55.38
2019-04-21T01:46:15.264Z,55.86
2019-04-21T01:48:45.882Z,56.22
2019-04-21T01:51:18.723Z,56.45
2019-04-21T01:53:55.069Z,56.03
2019-04-21T01:56:24.153Z,57.14
2019-04-21T01:58:48.234Z,57.10
2019-04-21T02:01:33.365Z,57.94
2019-04-21T02:04:02.755Z,56.88
2019-04-21T02:06:36.262Z,56.95
2019-04-21T02:09:05.215Z,57.22
2019-04-21T02:11:35.405Z,56.79
2019-04-21T02:14:09.964Z,56.80
2019-04-21T02:16:40.413Z,57.07
2019-04-21T02:19:04.796Z,57.18
2019-04-21T02:21:35.972Z,57.81
2019-04-21T02:24:35.159Z,57.99
2019-04-21T02:26:41.489Z,57.86
2019-04-21T02:29:15.526Z,58.52
2019-04-21T02:31:57.510Z,58.58
2019-04-21T02:34:23.758Z,58.76
2019-04-21T02:37:11.621Z,59.12
2019-04-21T02:39:35.431Z,59.34
2019-04-21T02:42:11.570Z,59.33
2019-04-21T02:44:37.500Z,59.49
2019-04-21T02:46:55.117Z,59.95
2019-04-21T02:52:15.477Z,59.46
2019-04-21T02:59:59.970Z,60.78
2019-04-21T03:02:34.963Z,60.66
2019-04-21T03:07:50.426Z,61.35
2019-04-21T03:10:20.558Z,60.18
2019-04-21T03:12:48.225Z,61.14
2019-04-21T03:15:23.484Z,60.63
2019-04-21T03:20:23.460Z,61.27
2019-04-21T03:22:58.147Z,61.48
2019-04-21T03:25:33.789Z,62.21
2019-04-21T03:30:53.110Z,62.90
2019-04-21T03:35:57.884Z,62.84
2019-04-21T03:40:28.607Z,63.36
2019-04-21T03:43:10.150Z,63.16
2019-04-21T03:45:40.569Z,63.11
2019-04-21T03:48:13.663Z,62.49
2019-04-21T03:53:09.291Z,62.99
2019-04-21T03:58:24.451Z,62.63
2019-04-21T04:01:04.120Z,62.36
2019-04-21T04:06:27.963Z,62.40
2019-04-21T04:11:33.720Z,62.50
2019-04-21T04:19:06.146Z,63.46
2019-04-21T04:24:13.746Z,63.71
2019-04-21T04:26:31.623Z,63.70
2019-04-21T04:29:08.879Z,63.96
2019-04-21T04:31:39.955Z,63.99
2019-04-21T04:34:09.865Z,64.69
2019-04-21T04:36:47.966Z,65.59
2019-04-21T04:39:25.788Z,64.20
2019-04-21T04:49:39.680Z,62.95
2019-04-21T04:54:40.927Z,59.97
2019-04-21T04:57:08.390Z,59.90
2019-04-21T05:02:14.944Z,60.33
2019-04-21T05:07:06.382Z,60.22
2019-04-21T05:09:39.611Z,60.59
2019-04-21T05:12:05.982Z,60.38
2019-04-21T05:14:40.463Z,59.34
2019-04-21T05:17:19.667Z,59.65
2019-04-21T05:22:17.305Z,58.86
2019-04-21T05:24:35.545Z,58.87
2019-04-21T05:27:05.014Z,58.73
2019-04-21T05:29:49.244Z,58.17
2019-04-21T05:32:17.154Z,57.58
2019-04-21T05:35:00.213Z,56.52
2019-04-21T05:37:29.325Z,56.38
2019-04-21T05:40:00.662Z,54.43
2019-04-21T05:42:28.876Z,51.43
2019-04-21T05:45:25.436Z,49.48
2019-04-21T05:47:52.679Z,45.48
2019-04-21T05:50:11.530Z,44.38
2019-04-21T05:52:45.958Z,42.95
2019-04-21T05:55:33.473Z,42.10
2019-04-21T05:57:57.321Z,41.31
2019-04-21T06:03:06.992Z,38.40
2019-04-21T06:05:43.607Z,37.36
2019-04-21T06:08:09.877Z,37.31
2019-04-21T06:10:41.946Z,39.10
2019-04-21T06:13:12.930Z,40.28
2019-04-21T06:15:44.596Z,40.49
2019-04-21T06:18:11.705Z,40.17
2019-04-21T06:20:40.571Z,39.60
2019-04-21T06:23:12.020Z,39.37
2019-04-21T06:26:25.629Z,39.97
2019-04-21T06:28:17.886Z,41.65
2019-04-21T06:30:57.280Z,41.85
2019-04-21T06:33:21.400Z,42.50
2019-04-21T06:36:20.887Z,43.48
2019-04-21T06:38:54.403Z,43.73
2019-04-21T06:41:13.526Z,43.65
2019-04-21T06:43:48.552Z,44.02
2019-04-21T06:46:21.094Z,43.68
2019-04-21T06:48:49.541Z,44.22
2019-04-21T06:51:22.456Z,43.23
2019-04-21T06:53:55.998Z,43.57
2019-04-21T06:56:21.811Z,43.80
2019-04-21T06:58:51.833Z,43.36
2019-04-21T07:01:25.987Z,43.68
2019-04-21T07:04:01.671Z,42.50
2019-04-21T07:06:32.416Z,42.67
2019-04-21T07:09:02.930Z,42.93
2019-04-21T07:11:28.744Z,41.15
2019-04-21T07:14:14.827Z,41.09
2019-04-21T07:16:31.902Z,42.03
2019-04-21T07:19:05.900Z,40.88
2019-04-21T07:21:34.072Z,40.63
2019-04-21T07:24:05.754Z,42.50
2019-04-21T07:26:36.733Z,40.57
2019-04-21T07:29:12.898Z,38.92
2019-04-21T07:31:40.405Z,39.32
2019-04-21T07:34:14.284Z,38.39
2019-04-21T07:36:48.123Z,40.50
2019-04-21T07:39:06.189Z,39.39
2019-04-21T07:41:42.520Z,39.13
2019-04-21T07:44:04.911Z,38.10
2019-04-21T07:46:36.606Z,37.73
2019-04-21T07:49:12.470Z,38.89
2019-04-21T07:51:57.625Z,35.18
2019-04-21T07:54:32.097Z,37.73
2019-04-21T07:56:44.196Z,37.21
2019-04-21T07:59:37.108Z,39.41
2019-04-21T08:02:02.373Z,37.07
2019-04-21T08:06:56.686Z,37.26
2019-04-21T08:09:37.136Z,37.62
2019-04-21T08:12:00.125Z,37.90
2019-04-21T08:14:39.523Z,38.88
2019-04-21T08:17:03.151Z,38.99
2019-04-21T08:19:35.223Z,37.02
2019-04-21T08:22:11.032Z,37.02
2019-04-21T08:24:46.893Z,38.09
2019-04-21T08:27:10.956Z,38.48
2019-04-21T08:32:14.483Z,38.29
2019-04-21T08:34:55.109Z,39.29
2019-04-21T08:37:15.050Z,39.08
2019-04-21T08:39:58.126Z,37.89
2019-04-21T08:42:18.200Z,37.29
2019-04-21T08:44:52.716Z,38.50
2019-04-21T08:47:20.325Z,38.18
2019-04-21T08:49:47.629Z,38.26
2019-04-21T08:52:39.399Z,37.30
2019-04-21T08:54:55.716Z,37.11
2019-04-21T08:57:34.874Z,36.91
2019-04-21T09:00:13.977Z,37.40
2019-04-21T09:02:40.295Z,36.46
2019-04-21T09:05:11.414Z,37.96
2019-04-21T09:07:49.559Z,36.81
2019-04-21T09:10:09.281Z,37.17
2019-04-21T09:12:41.778Z,37.49
2019-04-21T09:15:14.083Z,37.81
2019-04-21T09:17:41.401Z,34.77
2019-04-21T09:20:26.459Z,34.75
2019-04-21T09:22:50.076Z,32.34
2019-04-21T09:25:30.902Z,28.93
2019-04-21T09:27:53.685Z,27.26
2019-04-21T09:30:06.899Z,25.40
2019-04-21T09:32:38.529Z,23.67
2019-04-21T09:35:12.458Z,24.60
2019-04-21T09:37:47.315Z,23.73
2019-04-21T09:40:13.168Z,23.73
2019-04-21T09:42:50.295Z,23.11
2019-04-21T09:45:14.316Z,23.55
2019-04-21T09:47:52.548Z,23.06
2019-04-21T09:50:15.240Z,23.38
2019-04-21T09:52:49.752Z,23.62
2019-04-21T09:55:20.677Z,22.39
2019-04-21T09:57:53.550Z,20.64
2019-04-21T10:00:24.790Z,21.53
2019-04-21T10:02:58.628Z,21.58
2019-04-21T10:05:22.984Z,21.15
2019-04-21T10:07:55.141Z,21.26
2019-04-21T10:10:25.529Z,21.19
2019-04-21T10:12:56.215Z,21.57
2019-04-21T10:15:27.857Z,21.53
2019-04-21T10:17:58.438Z,20.74
2019-04-21T10:20:28.536Z,20.56
2019-04-21T10:22:57.956Z,20.56
2019-04-21T10:25:28.382Z,21.58
2019-04-21T10:27:58.966Z,20.24
2019-04-21T10:30:28.775Z,20.51
2019-04-21T10:32:58.539Z,20.32
2019-04-21T10:35:28.903Z,20.49
2019-04-21T10:38:10.996Z,20.83
2019-04-21T10:40:32.637Z,19.88
2019-04-21T10:43:01.610Z,20.58
2019-04-21T10:45:32.825Z,22.02
2019-04-21T10:48:03.028Z,20.80
2019-04-21T10:50:34.705Z,21.24
2019-04-21T10:53:13.382Z,19.07
2019-04-21T10:55:57.899Z,20.98
2019-04-21T10:58:20.375Z,19.60
2019-04-21T11:01:08.646Z,18.88
2019-04-21T11:03:42.755Z,20.97
2019-04-21T11:06:14.746Z,20.56
2019-04-21T11:08:48.572Z,21.01
2019-04-21T11:11:16.228Z,20.21
2019-04-21T11:13:46.390Z,20.28
2019-04-21T11:16:17.139Z,20.44
2019-04-21T11:18:48.151Z,20.36
2019-04-21T11:21:18.805Z,20.23
2019-04-21T11:23:48.198Z,21.21
2019-04-21T11:26:19.886Z,19.86
2019-04-21T11:28:56.871Z,19.94
2019-04-21T11:31:27.181Z,19.68
2019-04-21T11:33:57.547Z,19.04
2019-04-21T11:36:27.231Z,20.10
2019-04-21T11:39:16.611Z,19.75
2019-04-21T11:41:34.101Z,19.63
2019-04-21T11:44:05.005Z,19.01
2019-04-21T11:46:34.471Z,18.74
2019-04-21T11:49:04.138Z,19.46
2019-04-21T11:51:33.551Z,20.88
2019-04-21T11:54:04.528Z,18.57
2019-04-21T11:56:34.805Z,19.94
2019-04-21T11:59:05.778Z,20.66
2019-04-21T12:01:35.952Z,21.56
2019-04-21T12:04:07.602Z,20.67
2019-04-21T12:06:43.478Z,19.59
2019-04-21T12:09:10.103Z,19.94
2019-04-21T12:11:41.121Z,18.94
2019-04-21T12:14:10.593Z,18.97
2019-04-21T12:16:41.398Z,18.22
2019-04-21T12:19:10.712Z,19.42
2019-04-21T12:21:54.685Z,20.38
2019-04-21T12:24:13.162Z,20.29
2019-04-21T12:26:42.617Z,20.02
2019-04-21T12:29:11.953Z,19.99
2019-04-21T12:31:59.505Z,18.87
2019-04-21T12:34:30.224Z,18.68
2019-04-21T12:37:01.079Z,20.86
2019-04-21T12:39:32.729Z,20.96
2019-04-21T12:42:02.670Z,20.08
2019-04-21T12:44:32.095Z,19.50
2019-04-21T12:47:01.722Z,20.30
2019-04-21T12:49:31.835Z,20.11
2019-04-21T12:52:01.880Z,20.45
2019-04-21T12:54:33.365Z,20.57
2019-04-21T12:57:03.456Z,20.81
2019-04-21T12:59:34.501Z,19.78
2019-04-21T13:02:04.147Z,20.20
2019-04-21T13:04:33.650Z,19.90
2019-04-21T13:07:05.573Z,20.82
2019-04-21T13:09:36.102Z,18.23
2019-04-21T13:12:06.929Z,19.24
2019-04-21T13:14:37.801Z,20.08
2019-04-21T13:17:09.775Z,17.59
2019-04-21T13:19:39.502Z,18.23
2019-04-21T13:22:09.977Z,19.71
2019-04-21T13:24:39.948Z,18.98
2019-04-21T13:27:12.376Z,19.58
2019-04-21T13:29:41.948Z,18.56
2019-04-21T13:32:12.592Z,17.84
2019-04-21T13:34:42.194Z,16.31
2019-04-21T13:37:12.559Z,17.99
2019-04-21T13:40:11.097Z,18.11
2019-04-21T13:42:34.207Z,18.53
2019-04-21T13:44:57.820Z,17.54
2019-04-21T13:47:28.272Z,17.90
2019-04-21T13:49:59.893Z,17.25
2019-04-21T13:52:29.023Z,17.13
2019-04-21T13:54:58.385Z,18.36
2019-04-21T13:57:28.505Z,18.36
2019-04-21T13:59:59.236Z,18.52
2019-04-21T14:02:30.905Z,18.78
2019-04-21T14:05:01.756Z,17.73
2019-04-21T14:07:32.164Z,17.66
2019-04-21T14:10:06.302Z,17.89
2019-04-21T14:12:32.702Z,16.28
2019-04-21T14:15:02.293Z,17.26
2019-04-21T14:17:34.980Z,17.17
2019-04-21T14:20:09.031Z,17.38
2019-04-21T14:22:38.416Z,17.78
2019-04-21T14:25:08.239Z,18.54
2019-04-21T14:27:38.555Z,17.64
2019-04-21T14:30:10.381Z,17.34
2019-04-21T14:32:40.467Z,19.12
2019-04-21T14:35:10.941Z,18.08
2019-04-21T14:37:42.467Z,17.91
2019-04-21T14:40:17.347Z,18.37
2019-04-21T14:42:44.433Z,18.45
2019-04-21T14:45:16.825Z,19.96
2019-04-21T14:47:48.250Z,19.85
2019-04-21T14:50:36.591Z,19.50
2019-04-21T14:53:11.849Z,20.13
2019-04-21T14:55:45.473Z,20.02
2019-04-21T14:58:15.358Z,18.96
2019-04-21T15:00:55.592Z,18.04
2019-04-21T15:03:25.822Z,18.38
2019-04-21T15:05:55.708Z,17.44
2019-04-21T15:08:25.230Z,17.74
2019-04-21T15:10:54.920Z,16.74
2019-04-21T15:13:25.809Z,17.66
2019-04-21T15:15:56.287Z,18.39
2019-04-21T15:18:26.871Z,20.39
2019-04-21T15:20:57.461Z,18.83
2019-04-21T15:23:28.663Z,17.95
2019-04-21T15:25:58.010Z,19.03
2019-04-21T15:28:31.669Z,18.44
2019-04-21T15:30:58.678Z,17.91
2019-04-21T15:33:29.125Z,16.89
2019-04-21T15:35:58.450Z,18.33
2019-04-21T15:38:27.758Z,17.76
2019-04-21T15:41:02.293Z,18.52
2019-04-21T15:43:28.643Z,19.61
2019-04-21T15:45:58.080Z,19.33
2019-04-21T15:48:28.802Z,19.56
2019-04-21T15:50:58.866Z,19.28
2019-04-21T15:53:31.947Z,19.55
2019-04-21T15:56:04.631Z,19.59
2019-04-21T15:58:52.706Z,19.32
2019-04-21T16:01:36.600Z,19.57
2019-04-21T16:04:07.851Z,19.74
2019-04-21T16:06:37.876Z,19.20
2019-04-21T16:09:16.168Z,19.18
2019-04-21T16:11:40.245Z,20.04
2019-04-21T16:14:10.182Z,20.71
2019-04-21T16:16:41.035Z,19.93
2019-04-21T16:19:12.157Z,21.37
2019-04-21T16:21:45.937Z,20.37
2019-04-21T16:24:14.271Z,21.18
2019-04-21T16:26:44.635Z,20.65
2019-04-21T16:29:15.481Z,20.83
2019-04-21T16:31:47.006Z,21.24
2019-04-21T16:34:17.881Z,21.45
2019-04-21T16:36:49.759Z,21.71
2019-04-21T16:39:19.715Z,22.29
2019-04-21T16:41:50.029Z,21.25
2019-04-21T16:44:20.907Z,21.47
2019-04-21T16:46:51.688Z,21.01
2019-04-21T16:49:22.242Z,21.50
2019-04-21T16:51:53.950Z,21.86
2019-04-21T16:54:26.239Z,22.42
2019-04-21T16:57:03.819Z,22.95
2019-04-21T16:59:35.012Z,23.82
2019-04-21T17:02:04.886Z,23.58
2019-04-21T17:04:34.310Z,23.72
2019-04-21T17:07:05.070Z,23.81
2019-04-21T17:09:34.834Z,25.66
2019-04-21T17:12:09.701Z,26.10
2019-04-21T17:14:53.668Z,27.07
2019-04-21T17:17:32.337Z,28.01
2019-04-21T17:19:45.554Z,27.64
2019-04-21T17:22:13.482Z,27.63
2019-04-21T17:24:44.362Z,28.69
2019-04-21T17:27:15.276Z,29.04
2019-04-21T17:29:46.236Z,29.32
2019-04-21T17:32:16.438Z,29.31
2019-04-21T17:34:45.929Z,30.14
2019-04-21T17:37:15.354Z,30.73
2019-04-21T17:39:45.004Z,31.40
2019-04-21T17:42:26.444Z,31.74
2019-04-21T17:44:45.633Z,32.16
2019-04-21T17:47:25.330Z,33.39
2019-04-21T17:49:50.815Z,33.23
2019-04-21T17:52:38.843Z,34.21
2019-04-21T17:55:16.833Z,34.64
2019-04-21T17:57:57.103Z,34.55
2019-04-21T18:00:49.460Z,35.10
2019-04-21T18:03:01.781Z,35.72
2019-04-21T18:05:31.932Z,36.12
2019-04-21T18:08:00.082Z,35.62
2019-04-21T18:10:30.688Z,36.77
2019-04-21T18:12:57.922Z,36.87
2019-04-21T18:15:37.169Z,36.68
2019-04-21T18:17:50.595Z,36.99
2019-04-21T18:20:25.783Z,36.68
2019-04-21T18:23:07.470Z,36.92
2019-04-21T18:25:48.572Z,36.88
2019-04-21T18:28:08.763Z,37.24
2019-04-21T18:30:48.735Z,36.98
2019-04-21T18:33:26.612Z,37.51
2019-04-21T18:35:56.291Z,37.92
2019-04-21T18:38:51.835Z,38.63
2019-04-21T18:41:01.466Z,40.11
2019-04-21T18:44:08.064Z,41.37
2019-04-21T18:46:27.017Z,41.75
2019-04-21T18:48:50.849Z,43.18
2019-04-21T18:51:34.642Z,43.68
2019-04-21T18:54:24.151Z,44.01
2019-04-21T18:56:29.689Z,45.30
2019-04-21T18:59:00.603Z,44.93
2019-04-21T19:01:34.402Z,46.27
2019-04-21T19:04:05.383Z,46.82
2019-04-21T19:06:46.857Z,46.96
2019-04-21T19:09:26.655Z,48.04
2019-04-21T19:12:00.840Z,48.44
2019-04-21T19:14:31.971Z,49.06
2019-04-21T19:17:29.232Z,49.82
2019-04-21T19:19:44.469Z,50.32
2019-04-21T19:22:06.258Z,51.02
2019-04-21T19:24:52.385Z,51.96
2019-04-21T19:27:12.080Z,52.34
2019-04-21T19:29:45.216Z,52.65
2019-04-21T19:32:14.918Z,53.47
2019-04-21T19:34:29.347Z,53.15
2019-04-21T19:37:00.687Z,53.15
2019-04-21T19:39:39.404Z,54.48
2019-04-21T19:42:08.621Z,53.68
2019-04-21T19:44:47.128Z,54.55
2019-04-21T19:47:26.257Z,54.18
2019-04-21T19:49:55.421Z,53.56
2019-04-21T19:52:11.615Z,53.93
2019-04-21T19:54:39.739Z,54.71
2019-04-21T19:57:07.092Z,55.34
2019-04-21T19:59:44.713Z,56.19
2019-04-21T20:02:09.001Z,56.52
2019-04-21T20:04:47.926Z,56.18
2019-04-21T20:07:30.728Z,56.62
2019-04-21T20:10:02.383Z,56.97
2019-04-21T20:12:36.599Z,57.38
2019-04-21T20:15:08.437Z,57.79
2019-04-21T20:17:33.587Z,58.05
2019-04-21T20:19:46.017Z,56.99
2019-04-21T20:22:16.757Z,56.71
2019-04-21T20:24:53.948Z,56.78
2019-04-21T20:27:31.134Z,57.09
2019-04-21T20:30:08.069Z,57.09
2019-04-21T20:32:38.206Z,59.70
2019-04-21T20:35:34.691Z,59.18
2019-04-21T20:37:37.582Z,60.08
2019-04-21T20:39:59.845Z,59.70
2019-04-21T20:42:40.287Z,59.58
2019-04-21T20:45:28.918Z,60.04
2019-04-21T20:47:36.711Z,61.09
2019-04-21T20:50:12.338Z,60.81
2019-04-21T20:52:47.890Z,60.36
2019-04-21T20:55:10.651Z,60.10
2019-04-21T20:57:49.372Z,60.61
2019-04-21T21:00:21.757Z,60.82
2019-04-21T21:02:52.099Z,60.88
2019-04-21T21:05:24.697Z,61.43
2019-04-21T21:07:57.036Z,61.43
2019-04-21T21:10:26.110Z,60.61
2019-04-21T21:13:08.816Z,60.75
2019-04-21T21:15:29.142Z,61.33
2019-04-21T21:18:13.919Z,61.32
2019-04-21T21:20:35.663Z,60.93
2019-04-21T21:23:05.749Z,60.97
2019-04-21T21:25:44.708Z,61.14
2019-04-21T21:28:04.372Z,59.61
2019-04-21T21:30:41.741Z,60.30
2019-04-21T21:33:15.251Z,58.97
2019-04-21T21:35:37.971Z,58.93
2019-04-21T21:38:13.117Z,58.03
2019-04-21T21:40:45.487Z,57.75
2019-04-21T21:43:09.242Z,57.85
2019-04-21T21:45:41.091Z,58.45
2019-04-21T21:48:21.703Z,57.12
2019-04-21T21:50:45.969Z,58.17
2019-04-21T21:53:13.584Z,58.90
2019-04-21T21:55:38.584Z,58.14
2019-04-21T21:58:09.987Z,56.66
2019-04-21T22:00:43.145Z,56.46
2019-04-21T22:03:19.649Z,56.45
2019-04-21T22:05:50.406Z,56.44
2019-04-21T22:08:16.374Z,57.03
2019-04-21T22:10:45.687Z,57.21
2019-04-21T22:13:19.809Z,57.25
2019-04-21T22:15:48.283Z,57.32
2019-04-21T22:18:36.174Z,57.01
2019-04-21T22:21:04.962Z,57.40
2019-04-21T22:23:34.002Z,57.37
2019-04-21T22:25:51.437Z,57.76
2019-04-21T22:28:22.188Z,56.41
2019-04-21T22:30:53.375Z,55.83
2019-04-21T22:33:23.326Z,56.90
2019-04-21T22:36:02.062Z,57.12
2019-04-21T22:38:42.135Z,56.33
2019-04-21T22:41:10.103Z,55.95
2019-04-21T22:43:34.580Z,55.71
2019-04-21T22:45:59.331Z,55.71
2019-04-21T22:48:29.473Z,55.97
2019-04-21T22:51:00.606Z,54.64
2019-04-21T22:53:36.012Z,54.70
2019-04-21T22:56:11.986Z,55.01
2019-04-21T22:58:37.338Z,54.81
2019-04-21T23:01:05.579Z,55.45
2019-04-21T23:03:35.749Z,58.76
2019-04-21T23:06:13.567Z,57.40
2019-04-21T23:08:40.493Z,57.58
2019-04-21T23:11:11.898Z,56.55
2019-04-21T23:13:38.706Z,56.25
2019-04-21T23:16:09.870Z,57.25
2019-04-21T23:18:54.458Z,57.43
2019-04-21T23:21:25.838Z,56.84
2019-04-21T23:24:01.769Z,56.92
2019-04-21T23:26:33.120Z,58.75
2019-04-21T23:29:10.385Z,58.01
2019-04-21T23:31:34.153Z,57.65
2019-04-21T23:33:48.416Z,56.85
2019-04-21T23:36:24.166Z,57.04
2019-04-21T23:38:51.988Z,56.43
2019-04-21T23:41:21.490Z,58.19
2019-04-21T23:43:59.183Z,57.86
2019-04-21T23:46:26.741Z,58.64
2019-04-21T23:49:07.489Z,57.62
2019-04-21T23:51:36.640Z,58.73
2019-04-21T23:53:55.449Z,58.74
2019-04-21T23:56:30.064Z,57.81
2019-04-21T23:59:02.622Z,59.47
